Time;durP1;ratioP1;P1;durP2;ratioP2;P2;SDS_P1;SDS_P2;PMS_P1;PMS_P2;Temp;Humidity;BMP_temperature;BMP_pressure;BME280_temperature;BME280_humidity;BME280_pressure;Samples;Min_cycle;Max_cycle;Signal;HPM_P1;HPM_P2
2022/02/16 00:02:13;;;;;;;12.80;6.90;;;;;;;9.27;52.55;99036.06;5093516;28;20448;-48
2022/02/16 00:04:39;;;;;;;14.00;5.97;;;;;;;9.24;52.67;99027.78;5094809;28;20075;-48
2022/02/16 00:07:06;;;;;;;9.68;5.85;;;;;;;9.20;52.36;99024.72;5093394;28;20032;-49
2022/02/16 00:09:32;;;;;;;10.05;6.18;;;;;;;9.13;53.02;99029.03;5094679;28;20486;-48
2022/02/16 00:12:00;;;;;;;11.32;6.07;;;;;;;9.12;53.19;99019.59;5094672;28;20024;-49
2022/02/16 00:14:27;;;;;;;11.52;5.65;;;;;;;9.06;53.50;99022.94;5093321;28;20055;-47
2022/02/16 00:16:53;;;;;;;13.20;6.32;;;;;;;8.99;53.84;99013.19;5094477;28;20057;-47
2022/02/16 00:19:19;;;;;;;10.68;6.40;;;;;;;8.90;54.03;99014.25;5094543;28;20027;-48
2022/02/16 00:21:45;;;;;;;13.25;7.15;;;;;;;8.76;54.76;99013.28;5094463;28;20402;-49
2022/02/16 00:24:11;;;;;;;12.25;6.53;;;;;;;8.73;54.47;99012.81;5094447;28;20032;-49
2022/02/16 00:26:37;;;;;;;19.85;8.15;;;;;;;8.65;54.81;99012.91;5094353;28;20413;-49
2022/02/16 00:29:03;;;;;;;16.77;9.93;;;;;;;8.65;55.37;99011.09;5092025;28;20020;-48
2022/02/16 00:31:29;;;;;;;11.68;6.28;;;;;;;8.79;55.04;99002.44;5094263;28;20073;-47
2022/02/16 00:33:55;;;;;;;12.95;5.28;;;;;;;8.75;54.19;98997.75;5092893;28;20498;-48
2022/02/16 00:36:21;;;;;;;7.32;5.38;;;;;;;8.65;54.62;98998.00;5093835;28;20057;-48
2022/02/16 00:38:47;;;;;;;8.52;5.75;;;;;;;8.61;54.43;98991.50;5094089;28;20024;-49
2022/02/16 00:41:12;;;;;;;9.85;5.88;;;;;;;8.60;54.19;98992.50;5094072;28;20021;-48
2022/02/16 00:43:38;;;;;;;12.07;6.28;;;;;;;8.55;54.46;99000.91;5092750;28;20115;-50
2022/02/16 00:46:04;;;;;;;11.10;5.47;;;;;;;8.42;54.46;99005.94;5093969;28;20085;-48
2022/02/16 00:48:30;;;;;;;12.23;5.07;;;;;;;8.43;54.22;99006.75;5093965;28;20482;-48
2022/02/16 00:50:56;;;;;;;11.07;7.35;;;;;;;8.56;55.15;98997.28;5093893;28;20017;-48
2022/02/16 00:53:22;;;;;;;11.02;6.20;;;;;;;8.81;54.72;98997.00;5093843;28;20066;-49
2022/02/16 00:55:48;;;;;;;15.52;7.10;;;;;;;8.91;54.32;99000.16;5093826;28;20027;-48
2022/02/16 00:58:14;;;;;;;10.80;6.47;;;;;;;8.87;53.53;99003.34;5092389;28;20028;-49
2022/02/16 01:00:40;;;;;;;12.00;7.63;;;;;;;8.75;54.27;98995.13;5093778;28;20497;-48
2022/02/16 01:03:05;;;;;;;9.65;5.82;;;;;;;8.77;54.19;98988.75;5093691;28;20023;-47
2022/02/16 01:05:31;;;;;;;8.95;5.80;;;;;;;8.82;53.88;98985.56;5093691;28;20016;-48
2022/02/16 01:07:57;;;;;;;11.43;6.95;;;;;;;8.74;54.55;98991.69;5092270;28;20032;-49
2022/02/16 01:10:23;;;;;;;9.52;5.72;;;;;;;8.59;54.18;98977.78;5093805;28;20024;-47
2022/02/16 01:12:49;;;;;;;9.35;4.82;;;;;;;8.49;53.85;98979.88;5093506;28;20372;-49
2022/02/16 01:15:16;;;;;;;11.68;4.95;;;;;;;8.57;53.71;98983.22;5093447;28;20020;-49
2022/02/16 01:17:42;;;;;;;8.05;5.10;;;;;;;8.65;52.75;98981.50;5093274;28;20028;-47
2022/02/16 01:20:09;;;;;;;7.53;4.75;;;;;;;8.55;53.03;98973.91;5093321;28;20051;-48
2022/02/16 01:22:35;;;;;;;7.57;4.25;;;;;;;8.45;52.58;98978.59;5093344;28;20111;-49
2022/02/16 01:25:01;;;;;;;9.45;4.57;;;;;;;8.36;52.65;98977.84;5093188;28;20451;-49
2022/02/16 01:27:27;;;;;;;14.82;5.47;;;;;;;8.44;52.83;98969.94;5093222;28;20030;-49
2022/02/16 01:29:52;;;;;;;7.45;4.35;;;;;;;8.48;53.02;98967.78;5093133;28;20031;-48
2022/02/16 01:32:18;;;;;;;8.45;4.32;;;;;;;8.49;52.34;98970.25;5093092;28;20032;-47
2022/02/16 01:34:44;;;;;;;10.98;5.50;;;;;;;8.43;52.58;98965.72;5091699;28;20497;-49
2022/02/16 01:37:09;;;;;;;6.88;4.32;;;;;;;8.43;52.16;98957.88;5091471;28;20048;-49
2022/02/16 01:39:35;;;;;;;9.02;4.72;;;;;;;8.48;52.40;98966.00;5091669;28;20032;-49
2022/02/16 01:42:02;;;;;;;12.23;4.93;;;;;;;8.47;52.45;98968.78;5092761;28;20024;-49
2022/02/16 01:44:27;;;;;;;8.27;4.43;;;;;;;8.37;52.75;98966.38;5092917;28;20031;-48
2022/02/16 01:46:55;;;;;;;11.50;4.45;;;;;;;8.36;52.86;98968.19;5092792;28;20028;-47
2022/02/16 01:49:22;;;;;;;5.85;3.78;;;;;;;8.51;51.97;98970.03;5091471;28;20025;-49
2022/02/16 01:51:48;;;;;;;9.93;4.47;;;;;;;8.49;52.20;98965.00;5092749;28;20012;-48
2022/02/16 01:54:14;;;;;;;7.85;4.00;;;;;;;8.51;52.29;98957.78;5092707;28;20039;-48
2022/02/16 01:56:47;;;;;;;7.10;4.10;;;;;;;8.48;52.03;98965.19;5091178;28;20024;-49
2022/02/16 01:59:18;;;;;;;7.78;4.40;;;;;;;8.48;52.66;98952.91;5092625;28;20240;-47
2022/02/16 02:01:44;;;;;;;7.28;4.53;;;;;;;8.48;52.51;98944.25;5092571;28;20521;-49
2022/02/16 02:04:10;;;;;;;6.88;4.50;;;;;;;8.45;52.91;98947.22;5092476;28;20095;-49
2022/02/16 02:06:35;;;;;;;7.93;4.47;;;;;;;8.51;52.28;98938.66;5092420;28;20146;-48
2022/02/16 02:09:01;;;;;;;8.65;4.55;;;;;;;8.67;52.52;98940.28;5092430;28;20402;-49
2022/02/16 02:11:28;;;;;;;11.35;5.63;;;;;;;8.75;52.24;98937.56;5092399;28;20017;-49
2022/02/16 02:13:58;;;;;;;7.10;4.03;;;;;;;8.83;52.13;98934.84;5092340;28;20024;-49
2022/02/16 02:16:24;;;;;;;9.73;5.05;;;;;;;8.90;52.44;98927.09;5090884;28;20036;-48
2022/02/16 02:18:50;;;;;;;9.10;4.78;;;;;;;9.03;52.52;98931.66;5092316;28;20508;-49
2022/02/16 02:21:17;;;;;;;10.98;5.00;;;;;;;9.16;52.65;98924.75;5092298;28;20024;-49
2022/02/16 02:23:44;;;;;;;7.45;3.88;;;;;;;9.19;52.16;98923.56;5092174;28;20106;-48
2022/02/16 02:26:10;;;;;;;6.57;3.85;;;;;;;9.14;51.91;98924.13;5092180;28;20020;-47
2022/02/16 02:28:36;;;;;;;11.80;3.90;;;;;;;8.99;51.54;98910.25;5092108;28;20032;-47
2022/02/16 02:31:02;;;;;;;8.05;3.95;;;;;;;8.83;52.06;98907.88;5092104;28;20525;-48
2022/02/16 02:33:27;;;;;;;22.85;6.13;;;;;;;8.69;53.62;98896.41;5090758;28;20218;-48
2022/02/16 02:35:54;;;;;;;7.32;4.72;;;;;;;8.80;53.21;98904.63;5091736;28;20051;-47
2022/02/16 02:38:20;;;;;;;8.82;4.38;;;;;;;8.87;53.75;98899.44;5092012;28;20503;-47
2022/02/16 02:40:56;;;;;;;5.80;3.85;;;;;;;8.92;53.21;98899.72;5091912;28;20055;-49
2022/02/16 02:43:24;;;;;;;10.73;4.53;;;;;;;8.83;53.13;98895.59;5091957;28;20038;-48
2022/02/16 02:45:51;;;;;;;11.52;7.15;;;;;;;8.76;53.09;98887.66;5090611;28;20032;-49
2022/02/16 02:48:24;;;;;;;10.82;6.78;;;;;;;8.73;52.42;98885.44;5091903;28;20024;-50
2022/02/16 02:50:54;;;;;;;8.35;4.00;;;;;;;8.74;52.12;98883.63;5092134;28;20548;-49
2022/02/16 02:53:21;;;;;;;9.45;4.93;;;;;;;8.84;52.99;98881.50;5090001;28;20503;-49
2022/02/16 02:55:47;;;;;;;7.15;4.13;;;;;;;8.89;53.11;98876.53;5090522;28;20031;-49
2022/02/16 02:58:13;;;;;;;7.10;3.35;;;;;;;8.92;53.03;98876.16;5091723;28;20031;-48
2022/02/16 03:00:40;;;;;;;10.95;4.40;;;;;;;9.05;54.32;98869.44;5091760;28;20020;-49
2022/02/16 03:03:06;;;;;;;7.95;4.05;;;;;;;9.22;54.54;98876.06;5091814;28;20050;-48
2022/02/16 03:05:32;;;;;;;15.23;3.67;;;;;;;9.25;53.80;98873.06;5091705;28;20397;-49
2022/02/16 03:07:58;;;;;;;8.90;4.32;;;;;;;9.18;53.99;98880.88;5090387;28;20111;-48
2022/02/16 03:10:25;;;;;;;9.75;3.15;;;;;;;9.09;53.32;98868.06;5091681;28;20102;-48
2022/02/16 03:12:51;;;;;;;9.80;3.35;;;;;;;9.06;54.88;98865.84;5091715;28;20042;-48
2022/02/16 03:15:17;;;;;;;7.35;3.42;;;;;;;9.21;54.54;98869.19;5091631;28;20521;-47
2022/02/16 03:17:42;;;;;;;6.80;3.53;;;;;;;9.09;54.14;98863.66;5090251;28;20501;-49
2022/02/16 03:20:09;;;;;;;7.60;3.33;;;;;;;8.95;53.94;98865.34;5091643;28;20020;-49
2022/02/16 03:22:39;;;;;;;6.80;3.00;;;;;;;8.84;54.91;98863.19;5090251;28;20024;-48
2022/02/16 03:25:07;;;;;;;4.57;3.08;;;;;;;8.83;55.45;98855.53;5091791;28;20512;-49
2022/02/16 03:27:33;;;;;;;6.03;3.40;;;;;;;8.83;55.77;98842.44;5090238;28;20020;-50
2022/02/16 03:30:00;;;;;;;7.25;2.70;;;;;;;8.82;56.86;98846.88;5091545;28;20028;-49
2022/02/16 03:32:26;;;;;;;5.95;2.35;;;;;;;8.68;57.50;98845.91;5091520;28;20121;-49
2022/02/16 03:34:52;;;;;;;4.85;2.08;;;;;;;8.50;58.41;98855.97;5091512;28;20099;-48
2022/02/16 03:37:17;;;;;;;7.53;3.40;;;;;;;8.31;59.38;98852.06;5089887;28;20572;-50
2022/02/16 03:39:45;;;;;;;8.38;2.78;;;;;;;8.15;60.89;98864.34;5091323;28;20042;-48
2022/02/16 03:42:14;;;;;;;7.88;2.05;;;;;;;8.18;61.17;98861.34;5091333;28;20036;-47
2022/02/16 03:44:40;;;;;;;6.03;2.13;;;;;;;8.21;61.78;98847.13;5091402;28;20394;-50
2022/02/16 03:47:06;;;;;;;4.45;2.38;;;;;;;8.33;62.80;98857.91;5090027;28;20036;-49
2022/02/16 03:49:33;;;;;;;5.07;2.03;;;;;;;8.54;63.23;98863.25;5091395;28;20020;-47
2022/02/16 03:51:58;;;;;;;8.15;2.00;;;;;;;8.64;62.79;98860.34;5090028;28;20032;-49
2022/02/16 03:54:24;;;;;;;8.38;2.53;;;;;;;8.76;63.39;98855.47;5091278;28;20512;-49
2022/02/16 03:56:51;;;;;;;3.50;2.08;;;;;;;8.93;64.09;98862.09;5091195;28;20031;-48
2022/02/16 03:59:17;;;;;;;3.85;1.85;;;;;;;8.89;63.52;98855.59;5089988;28;20020;-49
2022/02/16 04:01:43;;;;;;;6.80;2.40;;;;;;;8.82;63.98;98862.56;5089891;28;20024;-50
2022/02/16 04:04:09;;;;;;;10.48;2.50;;;;;;;8.82;65.85;98859.16;5091378;28;20032;-49
2022/02/16 04:06:35;;;;;;;3.80;1.75;;;;;;;8.88;65.86;98859.22;5093618;28;20017;-49
2022/02/16 04:09:00;;;;;;;6.55;2.00;;;;;;;8.80;66.54;98851.47;5094793;28;20099;-48
2022/02/16 04:11:27;;;;;;;21.92;15.35;;;;;;;8.82;67.18;98854.72;5093387;28;20048;-48
2022/02/16 04:13:54;;;;;;;17.05;4.93;;;;;;;8.88;68.59;98850.56;5093382;28;20073;-48
2022/02/16 04:16:21;;;;;;;23.90;13.45;;;;;;;8.96;68.55;98851.25;5093292;28;20020;-48
2022/02/16 04:18:47;;;;;;;15.77;5.15;;;;;;;8.94;69.47;98847.19;5094527;28;20023;-48
2022/02/16 04:21:13;;;;;;;13.93;8.27;;;;;;;8.93;70.41;98848.19;5093214;28;20494;-47
2022/02/16 04:23:42;;;;;;;11.40;5.82;;;;;;;8.89;70.44;98845.13;5094459;28;20028;-47
2022/02/16 04:26:07;;;;;;;36.72;26.98;;;;;;;8.91;70.88;98847.56;5094458;28;20162;-49
2022/02/16 04:28:33;;;;;;;45.20;29.65;;;;;;;8.76;70.68;98845.78;5094428;28;20144;-47
2022/02/16 04:30:59;;;;;;;14.20;7.22;;;;;;;8.70;71.11;98843.91;5093014;28;20034;-48
2022/02/16 04:33:25;;;;;;;10.68;3.05;;;;;;;8.59;69.95;98834.75;5092964;28;20032;-47
2022/02/16 04:35:51;;;;;;;8.07;2.30;;;;;;;8.50;70.40;98835.84;5092856;28;20414;-49
2022/02/16 04:38:16;;;;;;;9.52;3.47;;;;;;;8.44;72.14;98827.91;5094267;28;20082;-47
2022/02/16 04:40:42;;;;;;;5.75;2.33;;;;;;;8.55;72.54;98830.88;5094160;28;20019;-47
2022/02/16 04:43:08;;;;;;;7.85;3.10;;;;;;;8.58;72.20;98812.19;5092853;28;20028;-46
2022/02/16 04:45:35;;;;;;;6.53;3.17;;;;;;;8.63;72.38;98805.59;5094062;28;20076;-48
2022/02/16 04:48:03;;;;;;;5.22;2.15;;;;;;;8.56;72.41;98806.31;5094038;28;20523;-46
2022/02/16 04:50:29;;;;;;;3.78;1.90;;;;;;;8.62;73.29;98804.78;5093940;28;20058;-47
2022/02/16 04:52:55;;;;;;;4.20;2.40;;;;;;;8.68;73.42;98803.25;5094039;28;20505;-47
2022/02/16 04:55:23;;;;;;;7.82;3.50;;;;;;;8.78;73.80;98811.59;5093817;28;20021;-46
2022/02/16 04:57:49;;;;;;;4.63;2.50;;;;;;;8.84;73.78;98805.63;5093825;28;20077;-46
2022/02/16 05:00:15;;;;;;;4.68;2.15;;;;;;;8.80;73.44;98807.00;5092474;28;20016;-46
2022/02/16 05:02:41;;;;;;;6.32;2.78;;;;;;;8.60;73.76;98801.53;5092455;28;20035;-47
2022/02/16 05:05:08;;;;;;;4.45;2.15;;;;;;;8.59;75.23;98805.13;5093663;28;20016;-46
2022/02/16 05:07:35;;;;;;;5.90;1.90;;;;;;;8.69;74.92;98799.63;5093614;28;20401;-46
2022/02/16 05:10:01;;;;;;;10.70;2.42;;;;;;;8.72;74.65;98792.22;5092267;28;20020;-46
2022/02/16 05:12:27;;;;;;;5.78;1.60;;;;;;;8.80;74.51;98799.13;5093599;28;20027;-46
2022/02/16 05:14:52;;;;;;;6.15;1.70;;;;;;;8.87;74.06;98793.97;5091905;28;20028;-46
2022/02/16 05:17:18;;;;;;;5.25;1.73;;;;;;;8.82;74.23;98789.28;5093144;28;20061;-45
2022/02/16 05:19:44;;;;;;;3.58;1.80;;;;;;;8.66;73.77;98789.53;5093427;28;20032;-47
2022/02/16 05:22:10;;;;;;;5.20;2.03;;;;;;;8.48;74.58;98792.56;5092024;28;20541;-46
2022/02/16 05:24:36;;;;;;;10.15;2.03;;;;;;;8.49;75.29;98781.91;5093325;28;20024;-46
2022/02/16 05:27:02;;;;;;;5.65;1.50;;;;;;;8.64;75.00;98775.84;5093257;28;20161;-47
2022/02/16 05:29:28;;;;;;;5.28;1.42;;;;;;;8.65;74.79;98774.81;5091859;28;20021;-46
2022/02/16 05:31:54;;;;;;;8.40;1.83;;;;;;;8.60;76.62;98770.94;5093161;28;20519;-47
2022/02/16 05:34:19;;;;;;;7.57;5.05;;;;;;;8.67;77.30;98773.66;5093149;28;20024;-46
2022/02/16 05:36:46;;;;;;;175.65;14.60;;;;;;;8.83;77.95;98766.53;5092774;28;20039;-48
2022/02/16 05:39:11;;;;;;;5.85;1.95;;;;;;;8.97;78.27;98763.88;5091724;28;20027;-47
2022/02/16 05:41:37;;;;;;;17.50;5.68;;;;;;;8.84;76.66;98752.47;5092881;28;20434;-48
2022/02/16 05:44:03;;;;;;;4.38;1.80;;;;;;;8.87;77.99;98750.28;5092953;28;20020;-48
2022/02/16 05:46:29;;;;;;;4.03;1.50;;;;;;;8.80;76.58;98758.06;5092853;28;20089;-46
2022/02/16 05:48:55;;;;;;;23.13;11.52;;;;;;;8.73;77.09;98761.63;5092828;28;20027;-48
2022/02/16 05:51:20;;;;;;;16.83;9.05;;;;;;;8.76;76.38;98766.50;5091402;28;20033;-48
2022/02/16 05:53:46;;;;;;;23.85;14.88;;;;;;;8.79;77.00;98764.31;5092788;28;20394;-47
2022/02/16 05:56:12;;;;;;;5.70;1.90;;;;;;;8.91;76.80;98754.13;5092667;28;20016;-47
2022/02/16 05:58:38;;;;;;;8.88;1.70;;;;;;;8.97;76.61;98757.81;5092602;28;20046;-47
2022/02/16 06:01:04;;;;;;;11.23;2.38;;;;;;;8.97;76.41;98753.41;5091292;28;20028;-48
2022/02/16 06:03:30;;;;;;;9.77;2.47;;;;;;;9.07;77.05;98752.25;5091276;28;20027;-47
2022/02/16 06:05:56;;;;;;;4.85;1.85;;;;;;;9.08;76.72;98767.00;5091178;28;20024;-47
2022/02/16 06:08:21;;;;;;;7.65;4.15;;;;;;;8.86;76.56;98761.75;5092508;28;20146;-47
2022/02/16 06:10:48;;;;;;;4.30;1.90;;;;;;;8.74;76.15;98763.25;5092445;28;20016;-47
2022/02/16 06:13:14;;;;;;;2.92;1.27;;;;;;;8.69;77.05;98758.59;5092413;28;20054;-48
2022/02/16 06:15:41;;;;;;;9.35;2.25;;;;;;;8.66;77.22;98755.53;5091045;28;20023;-46
2022/02/16 06:18:06;;;;;;;7.18;2.10;;;;;;;8.78;77.73;98746.97;5091088;28;20020;-45
2022/02/16 06:20:32;;;;;;;7.07;2.28;;;;;;;8.88;77.91;98746.69;5092214;28;20027;-47
2022/02/16 06:22:58;;;;;;;9.60;3.30;;;;;;;8.91;77.54;98750.72;5092259;28;20103;-45
2022/02/16 06:25:24;;;;;;;10.70;2.90;;;;;;;8.96;77.93;98743.13;5092199;28;20042;-46
2022/02/16 06:27:50;;;;;;;6.93;1.90;;;;;;;8.96;77.78;98750.97;5091410;28;20117;-47
2022/02/16 06:30:16;;;;;;;6.05;2.58;;;;;;;8.87;77.60;98752.09;5092138;28;20413;-51
2022/02/16 06:32:47;;;;;;;160.82;126.70;;;;;;;8.86;77.91;98753.91;5092126;28;20028;-47
2022/02/16 06:35:13;;;;;;;25.98;17.67;;;;;;;8.85;78.05;98765.34;5092186;28;20107;-46
2022/02/16 06:37:39;;;;;;;56.10;43.72;;;;;;;8.80;77.91;98765.13;5091680;28;20036;-46
2022/02/16 06:40:06;;;;;;;101.85;72.00;;;;;;;8.68;77.97;98764.00;5092024;28;20063;-48
2022/02/16 06:42:32;;;;;;;21.77;12.25;;;;;;;8.60;78.01;98760.50;5091948;28;20012;-48
2022/02/16 06:44:58;;;;;;;15.77;10.25;;;;;;;8.52;77.83;98759.81;5092007;28;20016;-48
2022/02/16 06:47:23;;;;;;;21.33;5.85;;;;;;;8.43;77.16;98760.91;5090593;28;20036;-47
2022/02/16 06:49:49;;;;;;;12.07;5.53;;;;;;;8.31;77.29;98757.91;5091991;28;20028;-49
2022/02/16 06:52:15;;;;;;;6.22;3.85;;;;;;;8.17;77.97;98764.81;5091774;28;20035;-48
2022/02/16 06:54:41;;;;;;;8.43;3.88;;;;;;;8.01;78.36;98758.00;5091824;28;20024;-48
2022/02/16 06:57:07;;;;;;;16.23;4.43;;;;;;;7.96;79.17;98762.94;5091710;28;20024;-46
2022/02/16 06:59:33;;;;;;;45.72;6.97;;;;;;;8.13;79.27;98776.59;5091872;28;20035;-47
2022/02/16 07:01:59;;;;;;;52.42;7.40;;;;;;;8.24;79.44;98770.91;5091786;28;20013;-47
2022/02/16 07:04:25;;;;;;;100.15;11.18;;;;;;;8.31;79.35;98768.38;5091828;28;20417;-47
2022/02/16 07:06:51;;;;;;;15.63;5.40;;;;;;;8.25;78.75;98763.88;5092065;28;20016;-48
2022/02/16 07:09:16;;;;;;;19.25;5.55;;;;;;;8.19;79.47;98765.44;5091739;28;20225;-47
2022/02/16 07:11:42;;;;;;;17.08;4.47;;;;;;;8.18;79.12;98769.03;5090385;28;20024;-47
2022/02/16 07:14:08;;;;;;;9.93;4.72;;;;;;;8.07;78.89;98767.72;5091700;28;20047;-46
2022/02/16 07:16:34;;;;;;;10.60;4.65;;;;;;;7.98;78.88;98766.97;5091562;28;20482;-48
2022/02/16 07:19:00;;;;;;;15.35;7.57;;;;;;;8.00;79.03;98766.81;5091659;28;20486;-47
2022/02/16 07:21:26;;;;;;;15.05;6.95;;;;;;;8.04;79.42;98765.44;5091608;28;20529;-48
2022/02/16 07:23:53;;;;;;;7.60;5.10;;;;;;;8.13;79.27;98771.38;5091636;28;20032;-47
2022/02/16 07:26:20;;;;;;;17.00;6.13;;;;;;;8.05;78.51;98764.47;5090258;28;20129;-47
2022/02/16 07:28:46;;;;;;;9.32;7.53;;;;;;;7.99;79.01;98766.00;5091556;28;20023;-46
2022/02/16 07:31:11;;;;;;;22.90;12.50;;;;;;;7.93;79.18;98768.53;5091480;28;20111;-47
2022/02/16 07:33:37;;;;;;;9.52;4.88;;;;;;;7.95;79.34;98764.75;5091541;28;20493;-48
2022/02/16 07:36:04;;;;;;;13.55;5.88;;;;;;;8.08;79.75;98758.88;5091254;28;20104;-47
2022/02/16 07:38:30;;;;;;;9.82;4.93;;;;;;;8.30;80.05;98766.78;5092145;28;20028;-48
2022/02/16 07:40:59;;;;;;;40.58;6.28;;;;;;;8.48;79.79;98769.81;5095312;28;20030;-48
2022/02/16 07:43:26;;;;;;;14.40;6.40;;;;;;;8.50;79.80;98767.81;5095222;28;20091;-48
2022/02/16 07:45:52;;;;;;;448.02;33.47;;;;;;;8.52;79.79;98768.44;5095223;28;20038;-48
2022/02/16 07:48:17;;;;;;;975.53;69.88;;;;;;;8.51;80.27;98763.41;5095153;28;20023;-47
2022/02/16 07:50:43;;;;;;;79.13;8.45;;;;;;;8.54;79.72;98768.28;5095090;28;20494;-48
2022/02/16 07:53:12;;;;;;;237.35;18.90;;;;;;;8.48;80.19;98764.59;5095094;28;20016;-48
2022/02/16 07:55:38;;;;;;;83.00;11.65;;;;;;;8.54;80.21;98763.84;5095046;28;20028;-48
2022/02/16 07:58:06;;;;;;;733.30;48.88;;;;;;;8.46;79.96;98766.59;5094885;28;20028;-48
2022/02/16 08:00:32;;;;;;;175.93;14.27;;;;;;;8.46;80.56;98768.41;5093631;28;20405;-47
2022/02/16 08:02:59;;;;;;;41.45;8.25;;;;;;;8.52;81.04;98789.38;5094915;28;20035;-48
2022/02/16 08:05:25;;;;;;;17.30;5.90;;;;;;;8.40;79.83;98775.94;5094869;28;20024;-48
2022/02/16 08:07:51;;;;;;;223.23;19.45;;;;;;;8.33;80.33;98767.22;5094815;28;20024;-48
2022/02/16 08:10:17;;;;;;;24.67;7.45;;;;;;;8.37;80.64;98768.47;5093396;28;20035;-48
2022/02/16 08:12:48;;;;;;;14.10;5.53;;;;;;;8.22;79.99;98769.50;5094751;28;20024;-49
2022/02/16 08:15:14;;;;;;;465.25;36.35;;;;;;;8.11;80.21;98771.59;5094665;28;20129;-48
2022/02/16 08:17:42;;;;;;;150.05;16.67;;;;;;;8.20;80.83;98777.50;5094552;28;20023;-48
2022/02/16 08:20:09;;;;;;;19.30;7.43;;;;;;;8.38;81.42;98779.75;5094569;28;20063;-47
2022/02/16 08:22:35;;;;;;;15.98;6.70;;;;;;;8.27;80.97;98778.41;5094565;28;20028;-48
2022/02/16 08:25:02;;;;;;;7.20;5.43;;;;;;;8.17;81.27;98775.28;5094869;28;20477;-49
2022/02/16 08:27:28;;;;;;;9.43;4.57;;;;;;;8.11;81.10;98766.34;5094501;28;20060;-48
2022/02/16 08:29:54;;;;;;;8.80;3.42;;;;;;;8.12;81.44;98773.19;5094371;28;20486;-47
2022/02/16 08:32:20;;;;;;;11.15;4.28;;;;;;;8.18;80.75;98767.22;5094623;28;20023;-48
2022/02/16 08:34:46;;;;;;;11.07;4.50;;;;;;;8.26;80.57;98757.69;5094372;28;20389;-49
2022/02/16 08:37:11;;;;;;;15.05;5.88;;;;;;;8.22;80.88;98754.59;5093861;28;20054;-47
2022/02/16 08:39:37;;;;;;;237.07;19.85;;;;;;;8.43;81.56;98751.28;5094231;28;20051;-48
2022/02/16 08:42:03;;;;;;;111.57;13.30;;;;;;;8.39;80.83;98756.03;5094405;28;20031;-48
2022/02/16 08:44:30;;;;;;;8.15;3.15;;;;;;;8.43;80.31;98756.50;5094155;28;20046;-48
2022/02/16 08:46:56;;;;;;;13.95;4.95;;;;;;;8.53;81.28;98754.41;5092681;28;20123;-48
2022/02/16 08:49:22;;;;;;;8.77;3.88;;;;;;;8.79;80.76;98758.25;5092717;28;20024;-49
2022/02/16 08:51:48;;;;;;;8.30;3.97;;;;;;;8.82;80.75;98757.09;5093074;28;20024;-49
2022/02/16 08:54:14;;;;;;;13.60;3.03;;;;;;;8.81;80.50;98751.03;5093969;28;20028;-49
2022/02/16 08:56:41;;;;;;;11.85;3.75;;;;;;;9.00;81.49;98750.41;5092486;28;20024;-49
2022/02/16 08:59:07;;;;;;;8.80;3.80;;;;;;;9.02;80.60;98752.03;5093822;28;20475;-48
2022/02/16 09:01:33;;;;;;;7.07;3.20;;;;;;;8.95;79.71;98752.78;5093826;28;20031;-48
2022/02/16 09:04:01;;;;;;;2.60;1.60;;;;;;;8.93;79.27;98754.78;5093776;28;20020;-48
2022/02/16 09:06:27;;;;;;;5.57;2.83;;;;;;;8.94;79.07;98756.38;5093714;28;20023;-49
2022/02/16 09:08:53;;;;;;;8.25;6.72;;;;;;;8.94;78.65;98761.63;5093608;28;20110;-49
2022/02/16 09:11:19;;;;;;;3.50;1.08;;;;;;;9.05;78.57;98765.53;5093606;28;20077;-48
2022/02/16 09:13:46;;;;;;;1.83;0.90;;;;;;;9.11;77.50;98758.75;5092308;28;20024;-48
2022/02/16 09:16:11;;;;;;;8.45;1.25;;;;;;;9.15;77.99;98759.97;5093500;28;20073;-47
2022/02/16 09:18:37;;;;;;;14.10;2.65;;;;;;;9.15;78.04;98766.03;5093518;28;20428;-47
2022/02/16 09:21:05;;;;;;;2.17;0.80;;;;;;;9.19;77.86;98751.59;5093443;28;20073;-49
2022/02/16 09:23:37;;;;;;;5.18;0.70;;;;;;;9.22;77.74;98749.59;5092112;28;20020;-49
2022/02/16 09:26:04;;;;;;;6.45;1.08;;;;;;;9.03;76.90;98754.44;5093378;28;20032;-49
2022/02/16 09:28:31;;;;;;;3.30;1.10;;;;;;;9.05;77.98;98754.25;5092028;28;20027;-49
2022/02/16 09:30:57;;;;;;;3.70;1.20;;;;;;;9.18;78.20;98743.91;5091857;28;20063;-48
2022/02/16 09:33:24;;;;;;;1.40;0.60;;;;;;;9.27;77.58;98745.38;5093226;28;20020;-48
2022/02/16 09:35:50;;;;;;;3.38;1.33;;;;;;;9.16;77.78;98754.56;5092832;28;20071;-50
2022/02/16 09:38:16;;;;;;;2.17;1.77;;;;;;;9.16;77.88;98753.75;5093352;28;20458;-48
2022/02/16 09:40:46;;;;;;;12.43;7.25;;;;;;;9.25;77.70;98757.03;5093012;28;20095;-48
2022/02/16 09:43:17;;;;;;;4.40;2.45;;;;;;;9.36;77.64;98761.78;5091592;28;20494;-48
2022/02/16 09:45:44;;;;;;;1.50;0.85;;;;;;;9.34;77.58;98764.56;5092941;28;20519;-48
2022/02/16 09:48:10;;;;;;;13.40;3.75;;;;;;;9.39;78.25;98767.41;5092817;28;20529;-49
2022/02/16 09:50:36;;;;;;;7.07;1.00;;;;;;;9.58;79.00;98770.38;5092882;28;20020;-48
2022/02/16 09:53:03;;;;;;;7.57;1.52;;;;;;;9.68;79.17;98772.66;5092781;28;20024;-49
2022/02/16 09:55:29;;;;;;;11.77;1.80;;;;;;;9.57;78.58;98745.97;5092732;28;20397;-49
2022/02/16 09:57:54;;;;;;;8.38;1.42;;;;;;;9.56;78.59;98759.28;5092593;28;20028;-48
2022/02/16 10:00:21;;;;;;;4.97;0.88;;;;;;;9.54;78.32;98754.25;5092658;28;20024;-49
2022/02/16 10:02:47;;;;;;;2.05;1.20;;;;;;;9.46;76.82;98757.00;5092563;28;20024;-49
2022/02/16 10:05:15;;;;;;;11.20;1.25;;;;;;;9.42;77.43;98755.78;5092610;28;20022;-49
2022/02/16 10:07:43;;;;;;;8.40;1.65;;;;;;;9.49;78.08;98750.56;5092553;28;20024;-49
2022/02/16 10:10:24;;;;;;;3.55;1.08;;;;;;;9.55;77.81;98760.28;5092486;28;20524;-49
2022/02/16 10:12:54;;;;;;;6.20;1.35;;;;;;;9.49;78.33;98769.72;5092463;28;20047;-50
2022/02/16 10:15:24;;;;;;;1.52;0.80;;;;;;;9.56;78.95;98767.94;5091094;28;20028;-49
2022/02/16 10:18:18;;;;;;;6.13;0.90;;;;;;;9.43;77.56;98775.72;5092325;28;20104;-49
2022/02/16 10:20:45;;;;;;;8.90;1.60;;;;;;;9.47;78.89;98773.53;5092374;28;20031;-49
2022/02/16 10:23:12;;;;;;;6.07;2.45;;;;;;;9.60;79.21;98784.09;5092301;28;20024;-48
2022/02/16 10:25:46;;;;;;;6.10;3.78;;;;;;;9.57;79.05;98776.63;5090980;28;20074;-50
2022/02/16 10:28:19;;;;;;;1.80;1.17;;;;;;;9.63;78.79;98777.66;5091117;28;20499;-49
2022/02/16 10:31:07;;;;;;;3.70;1.65;;;;;;;9.63;77.66;98777.66;5090885;28;20055;-48
2022/02/16 10:33:44;;;;;;;13.63;5.63;;;;;;;9.63;78.99;98767.19;5092263;28;20032;-49
2022/02/16 10:36:16;;;;;;;2.30;0.93;;;;;;;9.83;78.43;98775.16;5091903;28;20051;-48
2022/02/16 10:39:00;;;;;;;5.05;0.60;;;;;;;9.76;76.22;98759.41;5090751;28;20493;-48
2022/02/16 10:41:44;;;;;;;9.18;1.52;;;;;;;9.64;76.66;98759.13;5092052;28;20034;-47
2022/02/16 10:44:21;;;;;;;3.83;1.15;;;;;;;9.65;77.74;98770.44;5090778;28;20020;-48
2022/02/16 10:47:07;;;;;;;4.88;2.35;;;;;;;9.62;77.49;98763.75;5090645;28;20032;-49
2022/02/16 10:49:47;;;;;;;1.95;1.20;;;;;;;9.66;77.75;98757.13;5090654;28;20024;-49
2022/02/16 10:52:15;;;;;;;2.42;0.93;;;;;;;9.64;76.76;98764.38;5091961;28;20027;-49
2022/02/16 10:54:54;;;;;;;3.10;0.90;;;;;;;9.64;77.33;98759.13;5073961;28;20024;-48
2022/02/16 10:57:20;;;;;;;5.20;1.33;;;;;;;9.58;76.92;98755.47;5091873;28;20031;-47
2022/02/16 10:59:46;;;;;;;1.88;1.00;;;;;;;9.61;77.17;98759.50;5091780;28;20095;-48
2022/02/16 11:02:17;;;;;;;2.67;1.08;;;;;;;9.63;76.71;98762.75;5090509;28;20038;-47
2022/02/16 11:04:45;;;;;;;8.80;2.20;;;;;;;9.58;76.50;98744.19;5091832;28;20024;-47
2022/02/16 11:07:11;;;;;;;4.28;1.00;;;;;;;9.65;75.80;98738.97;5091785;28;20020;-47
2022/02/16 11:09:42;;;;;;;3.80;1.13;;;;;;;9.61;76.57;98749.03;5091764;28;20031;-47
2022/02/16 11:12:08;;;;;;;3.83;1.10;;;;;;;9.63;76.26;98746.22;5091754;28;20041;-46
2022/02/16 11:14:35;;;;;;;2.55;1.13;;;;;;;9.60;76.29;98742.19;5094346;28;20485;-47
2022/02/16 11:17:02;;;;;;;3.00;1.10;;;;;;;9.76;75.60;98754.97;5095721;28;20524;-47
2022/02/16 11:19:35;;;;;;;2.38;0.85;;;;;;;9.82;74.13;98747.31;5094491;28;20034;-46
2022/02/16 11:22:08;;;;;;;4.10;0.90;;;;;;;9.83;73.66;98741.91;5095709;28;20067;-49
2022/02/16 11:24:45;;;;;;;2.08;0.80;;;;;;;9.88;73.11;98757.03;5095700;28;20031;-50
2022/02/16 11:27:26;;;;;;;2.55;0.90;;;;;;;9.84;74.19;98747.94;5094641;28;20035;-49
2022/02/16 11:29:56;;;;;;;3.42;0.88;;;;;;;9.92;73.99;98746.00;5095620;28;20078;-47
2022/02/16 11:32:26;;;;;;;4.15;0.98;;;;;;;9.97;73.37;98751.44;5094212;28;20134;-49
2022/02/16 11:35:13;;;;;;;4.35;0.75;;;;;;;9.94;73.44;98751.84;5095578;28;20516;-49
2022/02/16 11:37:39;;;;;;;3.42;1.45;;;;;;;9.99;73.58;98743.38;5093838;28;20506;-48